createdAt,value
2018-10-12T00:00:12.706Z,30.53
2018-10-12T00:02:42.547Z,30.77
2018-10-12T00:05:11.799Z,26.40
2018-10-12T00:07:40.995Z,28.97
2018-10-12T00:10:10.130Z,30.23
2018-10-12T00:12:38.864Z,37.33
2018-10-12T00:15:07.811Z,29.77
2018-10-12T00:17:36.914Z,34.40
2018-10-12T00:20:06.514Z,33.60
2018-10-12T00:22:35.177Z,30.93
2018-10-12T00:25:03.865Z,28.80
2018-10-12T00:27:32.854Z,31.70
2018-10-12T00:30:01.546Z,30.27
2018-10-12T00:32:30.205Z,27.90
2018-10-12T00:34:58.841Z,29.40
2018-10-12T00:37:27.433Z,28.77
2018-10-12T00:39:56.074Z,30.17
2018-10-12T00:42:24.778Z,34.90
2018-10-12T00:44:53.456Z,30.80
2018-10-12T00:47:22.205Z,33.23
2018-10-12T00:49:50.946Z,29.13
2018-10-12T00:52:19.620Z,31.97
2018-10-12T00:54:48.283Z,31.63
2018-10-12T00:57:17.017Z,27.97
2018-10-12T00:59:45.753Z,28.23
2018-10-12T01:02:14.422Z,30.97
2018-10-12T01:04:43.094Z,27.23
2018-10-12T01:07:11.755Z,31.37
2018-10-12T01:09:40.505Z,33.33
2018-10-12T01:12:27.636Z,31.70
2018-10-12T01:14:56.337Z,29.30
2018-10-12T01:17:25.098Z,59.07
2018-10-12T01:19:54.170Z,38.00
2018-10-12T01:22:22.922Z,31.40
2018-10-12T01:24:51.615Z,39.07
2018-10-12T01:27:20.281Z,36.53
2018-10-12T01:29:49.158Z,34.70
2018-10-12T01:32:23.039Z,29.80
2018-10-12T01:34:52.046Z,29.77
2018-10-12T01:37:20.673Z,27.27
2018-10-12T01:39:49.468Z,47.07
2018-10-12T01:42:18.173Z,36.30
2018-10-12T01:44:46.881Z,33.53
2018-10-12T01:47:15.685Z,31.27
2018-10-12T01:49:44.361Z,30.10
2018-10-12T01:52:13.798Z,27.33
2018-10-12T01:54:42.748Z,28.73
2018-10-12T01:57:12.276Z,25.83
2018-10-12T01:59:41.241Z,25.77
2018-10-12T02:02:09.963Z,27.60
2018-10-12T02:04:38.615Z,29.93
2018-10-12T02:07:07.280Z,33.37
2018-10-12T02:09:35.905Z,30.33
2018-10-12T02:12:04.682Z,28.83
2018-10-12T02:14:33.470Z,29.13
2018-10-12T02:17:02.138Z,30.90
2018-10-12T02:19:31.144Z,25.57
2018-10-12T02:21:59.853Z,33.40
2018-10-12T02:24:28.545Z,24.23
2018-10-12T02:26:57.221Z,30.80
2018-10-12T02:29:25.904Z,28.73
2018-10-12T02:31:54.577Z,28.30
2018-10-12T02:34:23.257Z,28.13
2018-10-12T02:36:51.928Z,28.80
2018-10-12T02:39:20.698Z,25.33
2018-10-12T02:41:49.369Z,26.60
2018-10-12T02:44:18.013Z,25.37
2018-10-12T02:46:46.724Z,27.27
2018-10-12T02:49:15.386Z,28.03
2018-10-12T02:51:44.066Z,30.47
2018-10-12T02:54:12.720Z,36.93
2018-10-12T02:56:41.324Z,30.37
2018-10-12T02:59:10.009Z,25.40
2018-10-12T03:01:38.634Z,32.03
2018-10-12T03:04:07.507Z,26.83
2018-10-12T03:06:36.122Z,26.30
2018-10-12T03:09:07.237Z,26.20
2018-10-12T03:11:36.015Z,25.13
2018-10-12T03:14:04.683Z,24.87
2018-10-12T03:16:33.406Z,23.20
2018-10-12T03:19:02.174Z,24.87
2018-10-12T03:21:31.208Z,25.37
2018-10-12T03:23:59.945Z,25.57
2018-10-12T03:26:28.671Z,27.07
2018-10-12T03:28:57.439Z,24.00
2018-10-12T03:31:26.566Z,24.23
2018-10-12T03:33:55.417Z,25.53
2018-10-12T03:36:24.223Z,26.47
2018-10-12T03:38:52.920Z,26.23
2018-10-12T03:41:21.568Z,31.67
2018-10-12T03:43:50.248Z,22.40
2018-10-12T03:46:18.954Z,21.73
2018-10-12T03:48:47.715Z,25.73
2018-10-12T03:51:16.542Z,25.60
2018-10-12T03:53:45.343Z,25.57
2018-10-12T03:56:14.084Z,29.43
2018-10-12T03:58:42.810Z,26.13
2018-10-12T04:01:11.513Z,31.03
2018-10-12T04:03:40.439Z,26.03
2018-10-12T04:06:09.136Z,30.77
2018-10-12T04:08:38.476Z,28.50
2018-10-12T04:11:07.144Z,25.40
2018-10-12T04:13:35.764Z,30.13
2018-10-12T04:16:04.524Z,27.40
2018-10-12T04:18:33.229Z,29.00
2018-10-12T04:21:01.884Z,26.23
2018-10-12T04:23:30.614Z,37.83
2018-10-12T04:25:59.283Z,41.73
2018-10-12T04:28:27.976Z,49.10
2018-10-12T04:30:56.871Z,33.67
2018-10-12T04:33:25.520Z,39.47
2018-10-12T04:35:54.273Z,46.97
2018-10-12T04:38:23.022Z,37.13
2018-10-12T04:41:03.177Z,39.30
2018-10-12T04:43:32.555Z,40.23
2018-10-12T04:46:02.361Z,45.57
2018-10-12T04:48:31.244Z,45.60
2018-10-12T04:51:00.565Z,48.00
2018-10-12T04:53:29.501Z,41.40
2018-10-12T04:55:58.361Z,40.80
2018-10-12T04:58:27.204Z,37.93
2018-10-12T05:00:56.033Z,41.77
2018-10-12T05:03:24.801Z,39.87
2018-10-12T05:05:53.582Z,39.40
2018-10-12T05:08:22.906Z,42.40
2018-10-12T05:10:51.706Z,31.63
2018-10-12T05:13:20.516Z,42.30
2018-10-12T05:15:49.297Z,36.33
2018-10-12T05:18:18.066Z,36.43
2018-10-12T05:20:46.787Z,43.63
2018-10-12T05:23:15.527Z,31.80
2018-10-12T05:25:44.351Z,38.37
2018-10-12T05:28:13.413Z,36.40
2018-10-12T05:30:42.349Z,33.67
2018-10-12T05:33:11.425Z,35.17
2018-10-12T05:35:40.068Z,34.57
2018-10-12T05:38:09.050Z,38.77
2018-10-12T05:40:38.064Z,30.77
2018-10-12T05:43:06.934Z,31.53
2018-10-12T05:45:35.641Z,39.23
2018-10-12T05:48:15.467Z,35.33
2018-10-12T05:50:44.722Z,29.73
2018-10-12T05:53:14.052Z,29.97
2018-10-12T05:55:43.060Z,26.03
2018-10-12T05:58:11.885Z,24.37
2018-10-12T06:00:40.682Z,28.50
2018-10-12T06:03:09.486Z,32.17
2018-10-12T06:05:38.270Z,28.33
2018-10-12T06:08:07.034Z,25.43
2018-10-12T06:10:36.092Z,26.97
2018-10-12T06:13:04.805Z,32.07
2018-10-12T06:15:33.569Z,30.53
2018-10-12T06:18:02.355Z,30.60
2018-10-12T06:20:31.098Z,29.10
2018-10-12T06:22:59.831Z,26.73
2018-10-12T06:25:28.529Z,28.57
2018-10-12T06:27:57.266Z,29.07
2018-10-12T06:30:25.993Z,31.33
2018-10-12T06:32:54.815Z,25.33
2018-10-12T06:35:23.705Z,27.17
2018-10-12T06:37:52.397Z,27.63
2018-10-12T06:40:21.483Z,25.93
2018-10-12T06:42:50.504Z,27.30
2018-10-12T06:45:19.261Z,28.20
2018-10-12T06:47:48.701Z,28.43
2018-10-12T06:50:17.486Z,27.50
2018-10-12T06:52:46.438Z,30.67
2018-10-12T06:55:15.273Z,28.77
2018-10-12T06:57:44.976Z,26.37
2018-10-12T07:00:16.890Z,32.47
2018-10-12T07:02:45.687Z,25.30
2018-10-12T07:05:14.838Z,25.37
2018-10-12T07:07:44.153Z,25.97
2018-10-12T07:10:13.007Z,32.93
2018-10-12T07:12:41.785Z,24.10
2018-10-12T07:15:10.671Z,29.40
2018-10-12T07:17:39.807Z,27.33
2018-10-12T07:20:08.691Z,24.80
2018-10-12T07:22:37.542Z,26.77
2018-10-12T07:25:06.359Z,26.93
2018-10-12T07:27:36.814Z,27.25
2018-10-12T07:30:08.945Z,21.75
2018-10-12T07:32:38.470Z,22.00
2018-10-12T07:35:07.533Z,26.80
2018-10-12T07:37:42.386Z,26.15
2018-10-12T07:40:21.880Z,27.95
2018-10-12T07:42:50.657Z,31.68
2018-10-12T07:45:19.589Z,21.25
2018-10-12T07:47:48.419Z,21.05
2018-10-12T07:50:17.249Z,26.05
2018-10-12T07:52:46.022Z,21.90
2018-10-12T07:55:19.321Z,21.57
2018-10-12T07:58:06.368Z,25.68
2018-10-12T08:00:35.254Z,28.15
2018-10-12T08:03:03.996Z,25.82
2018-10-12T08:05:32.694Z,22.25
2018-10-12T08:08:02.233Z,20.45
2018-10-12T08:10:31.097Z,28.30
2018-10-12T08:12:59.985Z,30.72
2018-10-12T08:15:32.814Z,22.60
2018-10-12T08:18:02.536Z,19.07
2018-10-12T08:20:31.777Z,20.02
2018-10-12T08:23:00.442Z,22.35
2018-10-12T08:25:29.264Z,21.82
2018-10-12T08:27:58.013Z,18.15
2018-10-12T08:30:26.881Z,23.85
2018-10-12T08:32:55.946Z,20.75
2018-10-12T08:35:24.776Z,19.25
2018-10-12T08:37:53.562Z,23.07
2018-10-12T08:40:22.302Z,18.45
2018-10-12T08:42:51.205Z,18.98
2018-10-12T08:45:19.883Z,20.75
2018-10-12T08:47:48.695Z,24.02
2018-10-12T08:50:17.393Z,19.82
2018-10-12T08:52:46.435Z,18.52
2018-10-12T08:55:15.382Z,17.25
2018-10-12T08:57:44.306Z,16.90
2018-10-12T09:00:13.822Z,17.55
2018-10-12T09:02:42.535Z,23.20
2018-10-12T09:05:12.455Z,18.00
2018-10-12T09:07:41.321Z,18.77
2018-10-12T09:10:10.130Z,16.97
2018-10-12T09:12:39.254Z,16.40
2018-10-12T09:15:08.210Z,15.65
2018-10-12T09:17:36.973Z,22.10
2018-10-12T09:20:07.325Z,14.18
2018-10-12T09:22:36.356Z,13.53
2018-10-12T09:25:05.326Z,16.42
2018-10-12T09:27:34.500Z,16.00
2018-10-12T09:30:06.534Z,14.53
2018-10-12T09:32:35.149Z,12.75
2018-10-12T09:35:03.905Z,14.00
2018-10-12T09:37:32.557Z,13.45
2018-10-12T09:40:01.298Z,13.43
2018-10-12T09:42:30.071Z,11.78
2018-10-12T09:44:58.969Z,14.18
2018-10-12T09:47:27.863Z,11.08
2018-10-12T09:49:56.709Z,16.62
2018-10-12T09:52:25.365Z,11.38
2018-10-12T09:54:54.470Z,16.93
2018-10-12T09:57:26.165Z,12.55
2018-10-12T09:59:55.443Z,12.78
2018-10-12T10:03:26.925Z,12.63
2018-10-12T10:05:55.560Z,15.45
2018-10-12T10:08:24.379Z,11.38
2018-10-12T10:10:53.056Z,11.38
2018-10-12T10:13:21.709Z,14.90
2018-10-12T10:15:50.438Z,14.18
2018-10-12T10:18:20.204Z,13.68
2018-10-12T10:20:48.845Z,11.80
2018-10-12T10:23:17.858Z,13.05
2018-10-12T10:25:46.785Z,11.20
2018-10-12T10:28:15.543Z,13.25
2018-10-12T10:30:44.282Z,14.40
2018-10-12T10:33:13.069Z,10.65
2018-10-12T10:35:41.766Z,14.13
2018-10-12T10:38:10.476Z,10.68
2018-10-12T10:40:39.143Z,10.88
2018-10-12T10:43:07.834Z,12.00
2018-10-12T10:45:36.605Z,12.03
2018-10-12T10:48:05.307Z,13.35
2018-10-12T10:50:34.397Z,11.90
2018-10-12T10:53:03.160Z,11.97
2018-10-12T10:55:31.879Z,13.53
2018-10-12T10:58:00.586Z,16.20
2018-10-12T11:00:29.386Z,14.75
2018-10-12T11:02:58.458Z,13.72
2018-10-12T11:05:27.516Z,14.78
2018-10-12T11:07:56.137Z,13.20
2018-10-12T11:10:24.856Z,16.77
2018-10-12T11:12:53.641Z,13.67
2018-10-12T11:15:22.348Z,12.77
2018-10-12T11:17:51.061Z,16.87
2018-10-12T11:20:19.829Z,12.75
2018-10-12T11:22:48.665Z,12.25
2018-10-12T11:25:17.376Z,15.68
2018-10-12T11:27:46.163Z,13.50
2018-10-12T11:30:14.903Z,15.10
2018-10-12T11:32:43.770Z,11.70
2018-10-12T11:35:12.440Z,12.00
2018-10-12T11:37:41.155Z,14.30
2018-10-12T11:40:09.981Z,20.10
2018-10-12T11:42:49.751Z,11.18
2018-10-12T11:45:18.588Z,13.10
2018-10-12T11:47:48.468Z,10.93
2018-10-12T11:50:17.236Z,10.58
2018-10-12T11:52:46.051Z,11.53
2018-10-12T11:55:15.029Z,10.58
2018-10-12T11:57:43.650Z,13.25
2018-10-12T12:00:12.425Z,12.23
2018-10-12T12:02:41.066Z,13.25
2018-10-12T12:05:10.080Z,12.80
2018-10-12T12:07:38.877Z,11.10
2018-10-12T12:10:07.863Z,13.28
2018-10-12T12:12:37.033Z,17.25
2018-10-12T12:15:06.105Z,11.22
2018-10-12T12:17:34.839Z,14.28
2018-10-12T12:20:03.589Z,13.18
2018-10-12T12:22:32.265Z,15.13
2018-10-12T12:25:00.985Z,11.68
2018-10-12T12:27:29.940Z,14.95
2018-10-12T12:29:59.287Z,15.85
2018-10-12T12:32:27.947Z,10.95
2018-10-12T12:34:57.301Z,12.00
2018-10-12T12:37:25.983Z,13.72
2018-10-12T12:39:54.619Z,12.23
2018-10-12T12:42:23.288Z,14.03
2018-10-12T12:44:52.077Z,11.22
2018-10-12T12:47:21.167Z,13.10
2018-10-12T12:49:49.777Z,11.48
2018-10-12T12:52:18.502Z,13.88
2018-10-12T12:54:47.253Z,14.30
2018-10-12T12:57:16.266Z,13.62
2018-10-12T12:59:44.926Z,13.53
2018-10-12T13:02:13.564Z,13.20
2018-10-12T13:04:43.362Z,13.37
2018-10-12T13:07:12.006Z,14.20
2018-10-12T13:09:40.616Z,14.87
2018-10-12T13:12:09.406Z,12.30
2018-10-12T13:14:38.323Z,13.33
2018-10-12T13:17:07.009Z,13.33
2018-10-12T13:19:36.094Z,15.73
2018-10-12T13:22:04.817Z,12.63
2018-10-12T13:24:33.471Z,11.23
2018-10-12T13:27:02.187Z,13.97
2018-10-12T13:29:30.831Z,12.67
2018-10-12T13:31:59.496Z,11.50
2018-10-12T13:34:28.160Z,11.90
2018-10-12T13:36:56.940Z,13.07
2018-10-12T13:39:25.592Z,13.50
2018-10-12T13:41:54.222Z,14.53
2018-10-12T13:44:22.899Z,11.80
2018-10-12T13:46:51.524Z,15.37
2018-10-12T13:49:20.170Z,13.67
2018-10-12T13:51:48.857Z,13.97
2018-10-12T13:54:17.526Z,13.87
2018-10-12T13:56:46.185Z,12.90
2018-10-12T13:59:15.229Z,12.20
2018-10-12T14:01:44.278Z,13.50
2018-10-12T14:04:13.258Z,17.43
2018-10-12T14:06:41.999Z,13.57
2018-10-12T14:09:10.656Z,14.90
2018-10-12T14:11:39.311Z,13.60
2018-10-12T14:14:07.974Z,13.83
2018-10-12T14:16:36.657Z,18.73
2018-10-12T14:19:05.603Z,12.73
2018-10-12T14:21:34.127Z,16.33
2018-10-12T14:24:04.214Z,12.23
2018-10-12T14:26:32.928Z,19.40
2018-10-12T14:29:01.600Z,12.90
2018-10-12T14:31:30.239Z,14.53
2018-10-12T14:33:58.896Z,21.10
2018-10-12T14:36:27.510Z,13.30
2018-10-12T14:38:56.241Z,12.00
2018-10-12T14:41:24.851Z,16.50
2018-10-12T14:43:53.560Z,16.20
2018-10-12T14:46:22.214Z,15.33
2018-10-12T14:48:50.951Z,14.13
2018-10-12T14:51:20.556Z,14.47
2018-10-12T14:53:49.149Z,20.37
2018-10-12T14:56:17.868Z,15.27
2018-10-12T14:58:46.671Z,12.50
2018-10-12T15:01:15.404Z,13.63
2018-10-12T15:03:44.137Z,13.30
2018-10-12T15:06:13.105Z,19.27
2018-10-12T15:08:41.802Z,12.53
2018-10-12T15:11:10.492Z,12.83
2018-10-12T15:13:39.181Z,12.93
2018-10-12T15:16:07.931Z,15.27
2018-10-12T15:18:36.606Z,13.70
2018-10-12T15:21:05.399Z,12.30
2018-10-12T15:23:34.054Z,21.23
2018-10-12T15:26:02.769Z,17.60
2018-10-12T15:28:31.499Z,16.93
2018-10-12T15:31:00.161Z,14.83
2018-10-12T15:33:28.841Z,22.43
2018-10-12T15:35:57.531Z,14.43
2018-10-12T15:38:26.254Z,12.20
2018-10-12T15:40:54.956Z,16.90
2018-10-12T15:43:23.665Z,12.83
2018-10-12T15:45:52.333Z,12.20
2018-10-12T15:48:21.124Z,13.27
2018-10-12T15:50:49.847Z,15.23
2018-10-12T15:53:18.708Z,12.07
2018-10-12T15:55:47.348Z,14.03
2018-10-12T15:58:16.030Z,13.53
2018-10-12T16:00:44.726Z,16.73
2018-10-12T16:03:13.685Z,13.53
2018-10-12T16:05:42.437Z,12.47
2018-10-12T16:08:11.125Z,11.60
2018-10-12T16:10:39.910Z,12.33
2018-10-12T16:13:08.646Z,14.97
2018-10-12T16:15:37.363Z,16.80
2018-10-12T16:18:06.046Z,17.57
2018-10-12T16:20:35.042Z,16.00
2018-10-12T16:23:03.752Z,19.73
2018-10-12T16:25:54.101Z,20.53
2018-10-12T16:28:23.698Z,15.57
2018-10-12T16:30:53.325Z,22.03
2018-10-12T16:33:22.476Z,18.27
2018-10-12T16:35:52.506Z,15.53
2018-10-12T16:38:22.199Z,20.63
2018-10-12T16:40:51.123Z,17.43
2018-10-12T16:43:19.814Z,15.93
2018-10-12T16:45:49.711Z,15.63
2018-10-12T16:48:18.430Z,14.20
2018-10-12T16:50:47.251Z,18.17
2018-10-12T16:53:16.123Z,16.23
2018-10-12T16:55:44.983Z,14.00
2018-10-12T16:58:14.491Z,19.50
2018-10-12T17:00:43.415Z,15.97
2018-10-12T17:03:12.127Z,11.70
2018-10-12T17:05:40.864Z,12.30
2018-10-12T17:08:09.815Z,11.97
2018-10-12T17:10:38.495Z,14.90
2018-10-12T17:13:07.180Z,12.90
2018-10-12T17:15:35.874Z,10.40
2018-10-12T17:18:04.846Z,11.17
2018-10-12T17:20:33.483Z,14.00
2018-10-12T17:23:02.157Z,16.97
2018-10-12T17:25:30.797Z,10.17
2018-10-12T17:27:59.481Z,13.60
2018-10-12T17:30:28.210Z,12.00
2018-10-12T17:32:56.902Z,12.30
2018-10-12T17:35:25.583Z,12.37
2018-10-12T17:37:54.203Z,11.93
2018-10-12T17:40:22.903Z,11.73
2018-10-12T17:42:51.914Z,12.63
2018-10-12T17:45:20.583Z,14.97
2018-10-12T17:47:49.565Z,19.13
2018-10-12T17:50:18.216Z,12.77
2018-10-12T17:52:46.900Z,11.23
2018-10-12T17:55:15.568Z,14.63
2018-10-12T17:57:44.245Z,12.20
2018-10-12T18:00:15.563Z,12.73
2018-10-12T18:02:44.136Z,15.30
2018-10-12T18:05:12.742Z,13.03
2018-10-12T18:07:41.471Z,18.03
2018-10-12T18:10:11.057Z,12.73
2018-10-12T18:12:39.734Z,15.43
2018-10-12T18:15:10.467Z,11.17
2018-10-12T18:17:39.761Z,14.97
2018-10-12T18:20:08.987Z,11.67
2018-10-12T18:22:37.668Z,13.50
2018-10-12T18:25:06.750Z,11.97
2018-10-12T18:27:35.422Z,12.70
2018-10-12T18:30:08.193Z,13.93
2018-10-12T18:32:37.243Z,14.67
2018-10-12T18:35:06.146Z,15.77
2018-10-12T18:37:34.875Z,19.60
2018-10-12T18:40:03.917Z,15.63
2018-10-12T18:42:32.995Z,17.70
2018-10-12T18:45:02.349Z,18.37
2018-10-12T18:47:31.049Z,15.40
2018-10-12T18:49:59.734Z,15.70
2018-10-12T18:52:28.423Z,17.13
2018-10-12T18:54:57.119Z,20.17
2018-10-12T18:57:25.855Z,21.97
2018-10-12T18:59:54.591Z,18.53
2018-10-12T19:02:23.272Z,18.20
2018-10-12T19:04:51.982Z,19.23
2018-10-12T19:07:20.638Z,16.23
2018-10-12T19:09:49.310Z,16.30
2018-10-12T19:12:17.989Z,16.43
2018-10-12T19:14:46.892Z,15.07
2018-10-12T19:17:16.393Z,14.07
2018-10-12T19:19:45.151Z,13.93
2018-10-12T19:22:14.198Z,16.47
2018-10-12T19:24:42.980Z,15.53
2018-10-12T19:27:11.607Z,16.40
2018-10-12T19:29:40.652Z,14.03
2018-10-12T19:32:09.377Z,15.53
2018-10-12T19:34:38.777Z,17.80
2018-10-12T19:37:07.710Z,17.97
2018-10-12T19:39:36.350Z,21.43
2018-10-12T19:42:05.013Z,17.80
2018-10-12T19:44:33.655Z,14.87
2018-10-12T19:47:02.288Z,16.60
2018-10-12T19:49:30.965Z,17.13
2018-10-12T19:51:59.991Z,15.07
2018-10-12T19:54:28.952Z,19.67
2018-10-12T19:56:57.599Z,14.17
2018-10-12T19:59:26.259Z,15.83
2018-10-12T20:01:55.039Z,17.70
2018-10-12T20:04:23.738Z,16.73
2018-10-12T20:06:52.365Z,15.87
2018-10-12T20:09:20.997Z,19.87
2018-10-12T20:11:49.671Z,20.27
2018-10-12T20:14:18.345Z,16.43
2018-10-12T20:16:46.987Z,17.80
2018-10-12T20:19:17.946Z,17.50
2018-10-12T20:21:46.673Z,18.00
2018-10-12T20:24:15.704Z,17.53
2018-10-12T20:26:44.333Z,18.07
2018-10-12T20:29:13.278Z,17.10
2018-10-12T20:31:42.080Z,19.07
2018-10-12T20:34:10.665Z,16.20
2018-10-12T20:36:39.359Z,17.50
2018-10-12T20:39:09.580Z,22.20
2018-10-12T20:41:38.766Z,13.50
2018-10-12T20:44:07.682Z,17.53
2018-10-12T20:46:36.924Z,12.20
2018-10-12T20:49:05.584Z,12.07
2018-10-12T20:51:34.197Z,13.17
2018-10-12T20:54:02.973Z,14.87
2018-10-12T20:56:31.608Z,11.00
2018-10-12T20:59:00.276Z,14.03
2018-10-12T21:01:28.944Z,14.23
2018-10-12T21:03:57.642Z,12.40
2018-10-12T21:06:26.308Z,14.30
2018-10-12T21:08:55.000Z,12.47
2018-10-12T21:11:23.889Z,21.00
2018-10-12T21:13:52.490Z,12.63
2018-10-12T21:16:21.160Z,12.63
2018-10-12T21:18:49.866Z,16.83
2018-10-12T21:21:18.558Z,17.77
2018-10-12T21:23:47.539Z,16.13
2018-10-12T21:26:16.596Z,18.80
2018-10-12T21:28:45.608Z,16.10
2018-10-12T21:31:14.675Z,16.03
2018-10-12T21:33:43.732Z,23.00
2018-10-12T21:36:12.725Z,16.37
2018-10-12T21:38:41.434Z,14.17
2018-10-12T21:41:10.081Z,12.43
2018-10-12T21:43:39.530Z,12.90
2018-10-12T21:46:08.181Z,14.70
2018-10-12T21:48:36.823Z,16.27
2018-10-12T21:51:05.786Z,18.47
2018-10-12T21:53:34.751Z,18.03
2018-10-12T21:56:03.681Z,19.23
2018-10-12T21:58:32.348Z,17.67
2018-10-12T22:01:04.882Z,21.13
2018-10-12T22:03:35.265Z,22.70
2018-10-12T22:06:04.173Z,26.80
2018-10-12T22:08:38.059Z,19.37
2018-10-12T22:11:07.099Z,22.83
2018-10-12T22:13:36.328Z,20.20
2018-10-12T22:16:05.150Z,22.00
2018-10-12T22:18:33.814Z,27.80
2018-10-12T22:21:03.087Z,19.73
2018-10-12T22:23:31.852Z,16.67
2018-10-12T22:26:01.312Z,18.97
2018-10-12T22:28:29.979Z,17.63
2018-10-12T22:30:58.640Z,17.83
2018-10-12T22:33:27.656Z,20.80
2018-10-12T22:35:56.375Z,15.67
2018-10-12T22:38:25.085Z,20.40
2018-10-12T22:40:53.813Z,36.97
2018-10-12T22:43:22.856Z,22.83
2018-10-12T22:45:51.526Z,27.73
2018-10-12T22:48:20.188Z,20.37
2018-10-12T22:50:48.830Z,23.70
2018-10-12T22:53:17.578Z,29.90
2018-10-12T22:55:46.203Z,19.33
2018-10-12T22:58:14.810Z,18.07
2018-10-12T23:00:43.484Z,18.57
2018-10-12T23:03:12.163Z,16.47
2018-10-12T23:05:41.020Z,13.60
2018-10-12T23:08:09.665Z,14.60
2018-10-12T23:10:38.314Z,18.33
2018-10-12T23:13:06.964Z,18.13
2018-10-12T23:15:35.660Z,20.07
2018-10-12T23:18:04.401Z,17.60
2018-10-12T23:20:33.117Z,15.77
2018-10-12T23:23:02.081Z,18.70
2018-10-12T23:25:30.792Z,16.17
2018-10-12T23:27:59.449Z,17.87
2018-10-12T23:30:28.122Z,17.43
2018-10-12T23:33:06.925Z,16.30
2018-10-12T23:35:35.581Z,15.10
2018-10-12T23:38:04.284Z,21.27
2018-10-12T23:40:32.994Z,18.47
2018-10-12T23:43:01.904Z,18.60
2018-10-12T23:45:30.821Z,16.93
2018-10-12T23:47:59.571Z,21.63
2018-10-12T23:50:28.297Z,22.83
2018-10-12T23:52:57.175Z,22.37
2018-10-12T23:55:25.846Z,20.50
2018-10-12T23:57:54.504Z,17.03
